QTR8445 EGSS-LIMC
Flight info
| Callsign | QTR8445 |
|---|---|
| Flight time | 1h 33m |
| Altitude | 39000 |
| Route | CLN M84 KONAN DCT KOK DCT CIV DCT IDOSA DCT SUTAL DCT GTQ DCT DEVDI DCT BASGO Z424 RIXUV |
| Aircraft | B77L/H-SDE1E2E3FGHIJ2J3J4J5M1RWXY/LB1D1 |
Departure
| Time | 2026-05-04 11:26 |
|---|---|
| Airport | London Stansted Airport (EGSS) |
Arrival
| Time | 2026-05-04 12:59 |
|---|---|
| Airport | Milan Malpensa International Airport (LIMC) |
| Time | Latitude | Longitude | Altitude | Speed | Heading |
|---|---|---|---|---|---|
| 2026-05-04 10:54 | 51.88644 | 0.25292 | 333 ft | 0 kts | 223° |
| 2026-05-04 11:12 | 51.88647 | 0.25295 | 338 ft | 3 kts | 223° |
| 2026-05-04 11:12 | 51.88665 | 0.25326 | 332 ft | 4 kts | 231° |
| 2026-05-04 11:13 | 51.88680 | 0.25362 | 333 ft | 4 kts | 247° |
| 2026-05-04 11:13 | 51.88685 | 0.25401 | 333 ft | 4 kts | 289° |
| 2026-05-04 11:13 | 51.88681 | 0.25415 | 334 ft | 1 kts | 313° |
| 2026-05-04 11:19 | 51.88904 | 0.25025 | 352 ft | 6 kts | 313° |
| 2026-05-04 11:19 | 51.88927 | 0.24986 | 351 ft | 5 kts | 313° |
| 2026-05-04 11:19 | 51.88950 | 0.24950 | 356 ft | 5 kts | 319° |
| 2026-05-04 11:19 | 51.88992 | 0.24890 | 356 ft | 8 kts | 316° |
| 2026-05-04 11:20 | 51.89026 | 0.24819 | 354 ft | 8 kts | 290° |
| 2026-05-04 11:20 | 51.89012 | 0.24734 | 358 ft | 8 kts | 233° |
| 2026-05-04 11:20 | 51.88963 | 0.24653 | 356 ft | 14 kts | 220° |
| 2026-05-04 11:20 | 51.88876 | 0.24531 | 357 ft | 17 kts | 222° |
| 2026-05-04 11:22 | 51.88250 | 0.23592 | 349 ft | 19 kts | 222° |
| 2026-05-04 11:22 | 51.88155 | 0.23449 | 353 ft | 19 kts | 223° |
| 2026-05-04 11:23 | 51.88051 | 0.23293 | 351 ft | 24 kts | 223° |
| 2026-05-04 11:23 | 51.87928 | 0.23110 | 351 ft | 24 kts | 223° |
| 2026-05-04 11:24 | 51.87607 | 0.22287 | 330 ft | 15 kts | 330° |
| 2026-05-04 11:25 | 51.87694 | 0.22277 | 330 ft | 11 kts | 21° |
| 2026-05-04 11:25 | 51.87751 | 0.22358 | 334 ft | 21 kts | 43° |
| 2026-05-04 11:25 | 51.88068 | 0.22829 | 334 ft | 102 kts | 43° |
| 2026-05-04 11:26 | 51.89563 | 0.25030 | 1087 ft | 158 kts | 42° |
| 2026-05-04 11:27 | 51.89250 | 0.39882 | 3968 ft | 262 kts | 116° |
| 2026-05-04 11:28 | 51.88449 | 0.42540 | 4073 ft | 264 kts | 115° |
| 2026-05-04 11:28 | 51.87654 | 0.45223 | 4787 ft | 266 kts | 115° |
| 2026-05-04 11:28 | 51.86853 | 0.47942 | 4974 ft | 270 kts | 115° |
| 2026-05-04 11:28 | 51.86088 | 0.50726 | 5269 ft | 271 kts | 107° |
| 2026-05-04 11:29 | 51.85693 | 0.53731 | 6174 ft | 275 kts | 98° |
| 2026-05-04 11:29 | 51.85447 | 0.56809 | 7145 ft | 278 kts | 97° |
| 2026-05-04 11:29 | 51.85212 | 0.59934 | 8053 ft | 282 kts | 97° |
| 2026-05-04 11:29 | 51.84960 | 0.63117 | 8972 ft | 288 kts | 98° |
| 2026-05-04 11:31 | 51.82800 | 0.86769 | 14990 ft | 318 kts | 99° |
| 2026-05-04 11:33 | 51.70723 | 1.05251 | 17285 ft | 407 kts | 145° |
| 2026-05-04 11:33 | 51.68431 | 1.07953 | 18273 ft | 410 kts | 144° |
| 2026-05-04 11:33 | 51.66119 | 1.10689 | 19127 ft | 414 kts | 144° |
| 2026-05-04 11:34 | 51.63783 | 1.13461 | 19905 ft | 419 kts | 145° |
| 2026-05-04 11:34 | 51.61415 | 1.16269 | 20674 ft | 425 kts | 145° |
| 2026-05-04 11:34 | 51.59022 | 1.19105 | 21426 ft | 430 kts | 145° |
| 2026-05-04 11:34 | 51.56595 | 1.21976 | 22202 ft | 435 kts | 145° |
| 2026-05-04 11:35 | 51.54146 | 1.24869 | 22942 ft | 440 kts | 146° |
| 2026-05-04 11:35 | 51.51656 | 1.27802 | 23658 ft | 446 kts | 146° |
| 2026-05-04 11:35 | 51.49143 | 1.30764 | 24302 ft | 449 kts | 146° |
| 2026-05-04 11:35 | 51.46625 | 1.33734 | 24999 ft | 451 kts | 146° |
| 2026-05-04 11:36 | 51.44183 | 1.36942 | 25708 ft | 456 kts | 140° |
| 2026-05-04 11:36 | 51.41937 | 1.40553 | 26379 ft | 461 kts | 135° |
| 2026-05-04 11:36 | 51.39901 | 1.44574 | 26995 ft | 466 kts | 130° |
| 2026-05-04 11:36 | 51.37966 | 1.48687 | 27575 ft | 470 kts | 130° |
| 2026-05-04 11:37 | 51.35993 | 1.52877 | 28171 ft | 473 kts | 130° |
| 2026-05-04 11:37 | 51.33993 | 1.57087 | 28806 ft | 475 kts | 130° |
| 2026-05-04 11:37 | 51.31986 | 1.61276 | 29387 ft | 477 kts | 130° |
| 2026-05-04 11:37 | 51.29959 | 1.65477 | 30093 ft | 476 kts | 130° |
| 2026-05-04 11:38 | 51.27936 | 1.69651 | 30689 ft | 474 kts | 131° |
| 2026-05-04 11:38 | 51.25915 | 1.73810 | 31236 ft | 473 kts | 131° |
| 2026-05-04 11:38 | 51.23895 | 1.77957 | 31838 ft | 471 kts | 131° |
| 2026-05-04 11:38 | 51.21887 | 1.82072 | 32416 ft | 470 kts | 131° |
| 2026-05-04 11:39 | 51.19883 | 1.86174 | 32982 ft | 468 kts | 131° |
| 2026-05-04 11:39 | 51.17887 | 1.90261 | 33506 ft | 467 kts | 132° |
| 2026-05-04 11:40 | 51.11960 | 2.19914 | 35778 ft | 491 kts | 97° |
| 2026-05-04 11:41 | 51.11727 | 2.25354 | 36192 ft | 490 kts | 97° |
| 2026-05-04 11:41 | 51.11466 | 2.30752 | 36600 ft | 489 kts | 97° |
| 2026-05-04 11:41 | 51.11180 | 2.36141 | 36967 ft | 488 kts | 97° |
| 2026-05-04 11:41 | 51.10876 | 2.41519 | 37269 ft | 489 kts | 97° |
| 2026-05-04 11:42 | 51.10564 | 2.46909 | 37588 ft | 489 kts | 97° |
| 2026-05-04 11:42 | 51.10263 | 2.52231 | 37946 ft | 489 kts | 97° |
| 2026-05-04 11:42 | 51.09947 | 2.57601 | 38270 ft | 486 kts | 99° |
| 2026-05-04 11:42 | 51.09264 | 2.62859 | 38429 ft | 485 kts | 109° |
| 2026-05-04 11:43 | 51.08505 | 2.66277 | 38631 ft | 483 kts | 114° |
| 2026-05-04 11:43 | 51.07053 | 2.71072 | 38887 ft | 480 kts | 122° |
| 2026-05-04 11:43 | 51.05248 | 2.75482 | 38995 ft | 482 kts | 126° |
| 2026-05-04 11:44 | 51.01370 | 2.84284 | 39015 ft | 483 kts | 127° |
| 2026-05-04 11:44 | 50.97565 | 2.92888 | 39013 ft | 476 kts | 126° |
| 2026-05-04 11:45 | 50.93786 | 3.01504 | 39003 ft | 474 kts | 126° |
| 2026-05-04 11:45 | 50.90025 | 3.10091 | 38997 ft | 473 kts | 126° |
| 2026-05-04 11:46 | 50.86289 | 3.18598 | 38997 ft | 474 kts | 126° |
| 2026-05-04 11:46 | 50.82512 | 3.27164 | 38998 ft | 476 kts | 126° |
| 2026-05-04 11:47 | 50.78703 | 3.35771 | 38974 ft | 479 kts | 127° |
| 2026-05-04 11:47 | 50.74874 | 3.44393 | 38985 ft | 478 kts | 127° |
| 2026-05-04 11:48 | 50.71050 | 3.52976 | 38991 ft | 478 kts | 127° |
| 2026-05-04 11:48 | 50.67241 | 3.61493 | 38994 ft | 478 kts | 127° |
| 2026-05-04 11:49 | 50.63397 | 3.70049 | 38989 ft | 478 kts | 127° |
| 2026-05-04 11:49 | 50.59552 | 3.78580 | 38989 ft | 477 kts | 127° |
| 2026-05-04 11:50 | 50.55809 | 3.87202 | 38987 ft | 477 kts | 124° |
| 2026-05-04 11:50 | 50.52328 | 3.96113 | 38993 ft | 478 kts | 123° |
| 2026-05-04 11:51 | 50.48982 | 4.04755 | 39004 ft | 478 kts | 123° |
| 2026-05-04 11:51 | 50.45481 | 4.13660 | 39000 ft | 478 kts | 124° |
| 2026-05-04 11:52 | 50.41984 | 4.22453 | 38997 ft | 478 kts | 124° |
| 2026-05-04 11:52 | 50.38455 | 4.31278 | 38998 ft | 478 kts | 124° |
| 2026-05-04 11:53 | 50.34918 | 4.40098 | 39007 ft | 479 kts | 124° |
| 2026-05-04 11:53 | 50.31351 | 4.48964 | 39008 ft | 483 kts | 124° |
| 2026-05-04 11:55 | 50.17024 | 4.84297 | 39010 ft | 479 kts | 125° |
| 2026-05-04 11:56 | 50.13436 | 4.93069 | 39007 ft | 479 kts | 125° |
| 2026-05-04 11:56 | 50.09848 | 5.01813 | 39000 ft | 479 kts | 125° |
| 2026-05-04 11:57 | 50.06253 | 5.10542 | 39010 ft | 478 kts | 125° |
| 2026-05-04 11:57 | 50.02652 | 5.19257 | 39013 ft | 479 kts | 126° |
| 2026-05-04 11:58 | 49.99036 | 5.27977 | 39008 ft | 481 kts | 126° |
| 2026-05-04 11:58 | 49.95420 | 5.36670 | 38994 ft | 481 kts | 126° |
| 2026-05-04 11:59 | 49.91801 | 5.45338 | 39008 ft | 481 kts | 126° |
| 2026-05-04 11:59 | 49.88143 | 5.54069 | 39002 ft | 482 kts | 126° |
| 2026-05-04 12:00 | 49.84479 | 5.62784 | 39018 ft | 483 kts | 126° |
| 2026-05-04 12:00 | 49.80902 | 5.71250 | 39007 ft | 484 kts | 126° |
| 2026-05-04 12:01 | 49.77207 | 5.79963 | 39013 ft | 484 kts | 126° |
| 2026-05-04 12:02 | 49.63011 | 6.08465 | 39019 ft | 479 kts | 132° |
| 2026-05-04 12:03 | 49.58802 | 6.16436 | 39021 ft | 479 kts | 132° |
| 2026-05-04 12:03 | 49.54588 | 6.24389 | 39035 ft | 480 kts | 133° |
| 2026-05-04 12:04 | 49.50351 | 6.32378 | 39008 ft | 481 kts | 133° |
| 2026-05-04 12:04 | 49.45553 | 6.39284 | 39026 ft | 470 kts | 148° |
| 2026-05-04 12:05 | 49.39871 | 6.44053 | 39028 ft | 463 kts | 159° |
| 2026-05-04 12:05 | 49.33980 | 6.47972 | 39008 ft | 462 kts | 159° |
| 2026-05-04 12:06 | 49.28123 | 6.51875 | 39006 ft | 461 kts | 159° |
| 2026-05-04 12:06 | 49.22251 | 6.55820 | 39014 ft | 461 kts | 159° |
| 2026-05-04 12:07 | 49.16377 | 6.59768 | 39009 ft | 460 kts | 159° |
| 2026-05-04 12:07 | 49.10514 | 6.63695 | 38988 ft | 459 kts | 159° |
| 2026-05-04 12:08 | 49.04657 | 6.67596 | 39014 ft | 459 kts | 159° |
| 2026-05-04 12:08 | 48.98805 | 6.71500 | 39018 ft | 459 kts | 159° |
| 2026-05-04 12:09 | 48.92951 | 6.75486 | 39018 ft | 461 kts | 158° |
| 2026-05-04 12:09 | 48.87114 | 6.79526 | 39015 ft | 462 kts | 158° |
| 2026-05-04 12:10 | 48.81298 | 6.83515 | 39024 ft | 462 kts | 158° |
| 2026-05-04 12:10 | 48.75426 | 6.87510 | 39025 ft | 463 kts | 159° |
| 2026-05-04 12:11 | 48.69534 | 6.91500 | 39027 ft | 463 kts | 159° |
| 2026-05-04 12:11 | 48.63643 | 6.95479 | 39027 ft | 464 kts | 159° |
| 2026-05-04 12:12 | 48.57750 | 6.99450 | 39013 ft | 464 kts | 158° |
| 2026-05-04 12:12 | 48.51856 | 7.03414 | 39024 ft | 463 kts | 158° |
| 2026-05-04 12:14 | 48.28316 | 7.19159 | 38998 ft | 463 kts | 159° |
| 2026-05-04 12:15 | 48.22411 | 7.23077 | 38982 ft | 463 kts | 158° |
| 2026-05-04 12:15 | 48.16538 | 7.26965 | 39018 ft | 462 kts | 158° |
| 2026-05-04 12:16 | 48.10631 | 7.30864 | 38987 ft | 463 kts | 158° |
| 2026-05-04 12:16 | 48.04731 | 7.34746 | 38998 ft | 464 kts | 158° |
| 2026-05-04 12:17 | 47.98859 | 7.38598 | 39000 ft | 464 kts | 158° |
| 2026-05-04 12:17 | 47.92935 | 7.42474 | 39007 ft | 465 kts | 159° |
| 2026-05-04 12:18 | 47.87003 | 7.46341 | 39001 ft | 466 kts | 159° |
| 2026-05-04 12:18 | 47.81052 | 7.50202 | 38999 ft | 466 kts | 159° |
| 2026-05-04 12:19 | 47.75111 | 7.54055 | 38999 ft | 465 kts | 159° |
| 2026-05-04 12:19 | 47.69185 | 7.57933 | 38978 ft | 465 kts | 158° |
| 2026-05-04 12:20 | 47.63265 | 7.61809 | 38985 ft | 464 kts | 159° |
| 2026-05-04 12:20 | 47.57342 | 7.65650 | 38997 ft | 464 kts | 159° |
| 2026-05-04 12:21 | 47.51449 | 7.69446 | 38986 ft | 464 kts | 159° |
| 2026-05-04 12:21 | 47.45566 | 7.73225 | 38989 ft | 463 kts | 159° |
| 2026-05-04 12:22 | 47.39646 | 7.77018 | 38984 ft | 463 kts | 159° |
| 2026-05-04 12:22 | 47.33729 | 7.80802 | 38997 ft | 463 kts | 159° |
| 2026-05-04 12:23 | 47.27826 | 7.84566 | 38982 ft | 463 kts | 159° |
| 2026-05-04 12:23 | 47.21919 | 7.88324 | 38987 ft | 464 kts | 159° |
| 2026-05-04 12:24 | 47.15990 | 7.92087 | 38977 ft | 464 kts | 159° |
| 2026-05-04 12:24 | 47.10092 | 7.95821 | 38971 ft | 465 kts | 159° |
| 2026-05-04 12:25 | 47.04151 | 7.99572 | 38979 ft | 465 kts | 159° |
| 2026-05-04 12:25 | 46.98209 | 8.03317 | 38986 ft | 465 kts | 159° |
| 2026-05-04 12:26 | 46.92267 | 8.07051 | 38986 ft | 464 kts | 159° |
| 2026-05-04 12:26 | 46.86339 | 8.10767 | 38978 ft | 465 kts | 159° |
| 2026-05-04 12:27 | 46.82170 | 8.13374 | 38992 ft | 464 kts | 159° |
| 2026-05-04 12:27 | 46.76248 | 8.17071 | 38986 ft | 464 kts | 159° |
| 2026-05-04 12:28 | 46.70785 | 8.20472 | 38987 ft | 464 kts | 159° |
| 2026-05-04 12:28 | 46.67852 | 8.22296 | 38708 ft | 465 kts | 159° |
| 2026-05-04 12:28 | 46.64882 | 8.24140 | 38011 ft | 465 kts | 159° |
| 2026-05-04 12:29 | 46.61911 | 8.25982 | 37347 ft | 462 kts | 159° |
| 2026-05-04 12:29 | 46.58952 | 8.27812 | 36621 ft | 460 kts | 159° |
| 2026-05-04 12:29 | 46.56004 | 8.29631 | 35901 ft | 459 kts | 160° |
| 2026-05-04 12:29 | 46.53053 | 8.31448 | 35098 ft | 461 kts | 160° |
| 2026-05-04 12:30 | 46.50093 | 8.33270 | 34274 ft | 463 kts | 160° |
| 2026-05-04 12:30 | 46.47121 | 8.35097 | 33296 ft | 465 kts | 160° |
| 2026-05-04 12:30 | 46.44136 | 8.36925 | 32324 ft | 466 kts | 160° |
| 2026-05-04 12:30 | 46.41144 | 8.38756 | 31377 ft | 467 kts | 160° |
| 2026-05-04 12:31 | 46.38146 | 8.40586 | 30459 ft | 466 kts | 159° |
| 2026-05-04 12:31 | 46.35222 | 8.42377 | 29748 ft | 460 kts | 159° |
| 2026-05-04 12:31 | 46.32259 | 8.44198 | 28987 ft | 454 kts | 159° |
| 2026-05-04 12:31 | 46.29388 | 8.45841 | 28337 ft | 445 kts | 163° |
| 2026-05-04 12:32 | 46.26441 | 8.47042 | 27695 ft | 437 kts | 168° |
| 2026-05-04 12:32 | 46.20575 | 8.48269 | 26511 ft | 422 kts | 176° |
| 2026-05-04 12:32 | 46.17648 | 8.48666 | 25891 ft | 419 kts | 175° |
| 2026-05-04 12:33 | 46.14761 | 8.49084 | 25270 ft | 417 kts | 175° |
| 2026-05-04 12:33 | 46.11899 | 8.49675 | 24663 ft | 415 kts | 170° |
| 2026-05-04 12:33 | 46.09108 | 8.50661 | 24088 ft | 412 kts | 165° |
| 2026-05-04 12:33 | 46.06410 | 8.52022 | 23452 ft | 410 kts | 160° |
| 2026-05-04 12:34 | 46.03754 | 8.53506 | 22826 ft | 407 kts | 161° |
| 2026-05-04 12:34 | 46.01126 | 8.54954 | 22203 ft | 404 kts | 161° |
| 2026-05-04 12:34 | 45.98504 | 8.56374 | 21640 ft | 401 kts | 161° |
| 2026-05-04 12:34 | 45.95895 | 8.57773 | 21066 ft | 399 kts | 161° |
| 2026-05-04 12:35 | 45.93299 | 8.59163 | 20492 ft | 396 kts | 161° |
| 2026-05-04 12:35 | 45.90728 | 8.60552 | 19943 ft | 394 kts | 160° |
| 2026-05-04 12:35 | 45.88316 | 8.62390 | 19404 ft | 393 kts | 146° |
| 2026-05-04 12:35 | 45.86236 | 8.64885 | 18831 ft | 387 kts | 141° |
| 2026-05-04 12:36 | 45.84227 | 8.67381 | 18659 ft | 373 kts | 142° |
| 2026-05-04 12:36 | 45.82307 | 8.69686 | 18459 ft | 346 kts | 142° |
| 2026-05-04 12:36 | 45.80502 | 8.71794 | 18076 ft | 330 kts | 143° |
| 2026-05-04 12:36 | 45.78739 | 8.73829 | 17742 ft | 325 kts | 143° |
| 2026-05-04 12:37 | 45.77036 | 8.75792 | 17453 ft | 319 kts | 143° |
| 2026-05-04 12:37 | 45.75241 | 8.77570 | 16929 ft | 314 kts | 152° |
| 2026-05-04 12:37 | 45.73318 | 8.79054 | 16491 ft | 313 kts | 154° |
| 2026-05-04 12:37 | 45.71388 | 8.80460 | 16129 ft | 310 kts | 155° |
| 2026-05-04 12:38 | 45.69475 | 8.81861 | 15754 ft | 308 kts | 154° |
| 2026-05-04 12:38 | 45.67558 | 8.83298 | 15098 ft | 316 kts | 154° |
| 2026-05-04 12:38 | 45.65577 | 8.84804 | 14260 ft | 329 kts | 154° |
| 2026-05-04 12:38 | 45.63510 | 8.86385 | 13247 ft | 345 kts | 153° |
| 2026-05-04 12:39 | 45.61313 | 8.87894 | 12525 ft | 352 kts | 163° |
| 2026-05-04 12:39 | 45.58918 | 8.88579 | 12391 ft | 348 kts | 172° |
| 2026-05-04 12:39 | 45.56590 | 8.89124 | 12281 ft | 328 kts | 170° |
| 2026-05-04 12:39 | 45.54435 | 8.89712 | 12176 ft | 302 kts | 169° |
| 2026-05-04 12:40 | 45.52447 | 8.90271 | 12019 ft | 281 kts | 169° |
| 2026-05-04 12:40 | 45.50580 | 8.90796 | 11761 ft | 267 kts | 169° |
| 2026-05-04 12:40 | 45.48785 | 8.91284 | 11422 ft | 260 kts | 169° |
| 2026-05-04 12:40 | 45.47007 | 8.91764 | 11209 ft | 258 kts | 169° |
| 2026-05-04 12:41 | 45.45253 | 8.92237 | 11005 ft | 255 kts | 169° |
| 2026-05-04 12:41 | 45.43503 | 8.92708 | 10706 ft | 255 kts | 168° |
| 2026-05-04 12:41 | 45.41789 | 8.93176 | 10377 ft | 252 kts | 168° |
| 2026-05-04 12:41 | 45.40088 | 8.93641 | 10216 ft | 245 kts | 168° |
| 2026-05-04 12:42 | 45.38390 | 8.94104 | 10175 ft | 252 kts | 168° |
| 2026-05-04 12:42 | 45.36651 | 8.94568 | 10143 ft | 254 kts | 168° |
| 2026-05-04 12:42 | 45.34938 | 8.95028 | 10103 ft | 247 kts | 168° |
| 2026-05-04 12:42 | 45.33251 | 8.95489 | 10107 ft | 245 kts | 168° |
| 2026-05-04 12:43 | 45.31579 | 8.95949 | 10105 ft | 245 kts | 168° |
| 2026-05-04 12:43 | 45.29897 | 8.96403 | 10101 ft | 245 kts | 168° |
| 2026-05-04 12:43 | 45.28240 | 8.96848 | 10081 ft | 239 kts | 168° |
| 2026-05-04 12:43 | 45.26622 | 8.97236 | 9841 ft | 233 kts | 177° |
| 2026-05-04 12:44 | 45.25065 | 8.96672 | 9382 ft | 238 kts | 210° |
| 2026-05-04 12:44 | 45.23924 | 8.94990 | 9147 ft | 243 kts | 234° |
| 2026-05-04 12:44 | 45.23305 | 8.92761 | 9123 ft | 245 kts | 255° |
| 2026-05-04 12:44 | 45.23356 | 8.90346 | 9157 ft | 252 kts | 279° |
| 2026-05-04 12:45 | 45.24192 | 8.88104 | 9186 ft | 263 kts | 306° |
| 2026-05-04 12:45 | 45.25705 | 8.86622 | 9127 ft | 268 kts | 332° |
| 2026-05-04 12:45 | 45.27432 | 8.85598 | 9126 ft | 270 kts | 334° |
| 2026-05-04 12:45 | 45.29170 | 8.84575 | 9106 ft | 272 kts | 334° |
| 2026-05-04 12:46 | 45.30922 | 8.83541 | 9109 ft | 271 kts | 334° |
| 2026-05-04 12:46 | 45.32660 | 8.82506 | 9103 ft | 270 kts | 333° |
| 2026-05-04 12:46 | 45.34392 | 8.81467 | 9092 ft | 269 kts | 333° |
| 2026-05-04 12:46 | 45.36114 | 8.80427 | 9093 ft | 268 kts | 333° |
| 2026-05-04 12:47 | 45.37813 | 8.79392 | 9107 ft | 263 kts | 330° |
| 2026-05-04 12:47 | 45.39404 | 8.78199 | 9094 ft | 264 kts | 327° |
| 2026-05-04 12:47 | 45.41023 | 8.76909 | 9109 ft | 269 kts | 327° |
| 2026-05-04 12:47 | 45.42656 | 8.75615 | 9108 ft | 268 kts | 327° |
| 2026-05-04 12:48 | 45.44269 | 8.74353 | 9121 ft | 260 kts | 327° |
| 2026-05-04 12:48 | 45.45833 | 8.73139 | 9121 ft | 253 kts | 327° |
| 2026-05-04 12:48 | 45.47377 | 8.71946 | 9125 ft | 253 kts | 327° |
| 2026-05-04 12:48 | 45.48924 | 8.70756 | 9126 ft | 252 kts | 328° |
| 2026-05-04 12:49 | 45.50481 | 8.69565 | 9127 ft | 253 kts | 328° |
| 2026-05-04 12:49 | 45.52033 | 8.68379 | 9134 ft | 253 kts | 328° |
| 2026-05-04 12:49 | 45.53589 | 8.67195 | 9133 ft | 254 kts | 328° |
| 2026-05-04 12:49 | 45.55141 | 8.66012 | 9124 ft | 253 kts | 328° |
| 2026-05-04 12:50 | 45.56699 | 8.64825 | 9134 ft | 254 kts | 328° |
| 2026-05-04 12:50 | 45.58256 | 8.63630 | 9136 ft | 255 kts | 327° |
| 2026-05-04 12:50 | 45.59802 | 8.62438 | 9134 ft | 256 kts | 327° |
| 2026-05-04 12:50 | 45.61387 | 8.61211 | 9083 ft | 255 kts | 327° |
| 2026-05-04 12:51 | 45.62965 | 8.60121 | 8659 ft | 253 kts | 338° |
| 2026-05-04 12:51 | 45.64668 | 8.59545 | 8222 ft | 248 kts | 347° |
| 2026-05-04 12:51 | 45.66323 | 8.59133 | 7783 ft | 244 kts | 347° |
| 2026-05-04 12:51 | 45.67990 | 8.58713 | 7337 ft | 239 kts | 347° |
| 2026-05-04 12:52 | 45.69574 | 8.58293 | 6990 ft | 224 kts | 346° |
| 2026-05-04 12:52 | 45.71068 | 8.57880 | 6548 ft | 214 kts | 345° |
| 2026-05-04 12:52 | 45.72522 | 8.57469 | 6059 ft | 209 kts | 345° |
| 2026-05-04 12:52 | 45.73931 | 8.57071 | 5582 ft | 204 kts | 345° |
| 2026-05-04 12:53 | 45.75300 | 8.56698 | 5074 ft | 201 kts | 349° |
| 2026-05-04 12:53 | 45.76654 | 8.56943 | 4522 ft | 197 kts | 22° |
| 2026-05-04 12:53 | 45.77624 | 8.58256 | 3808 ft | 195 kts | 60° |
| 2026-05-04 12:53 | 45.77983 | 8.60123 | 3395 ft | 199 kts | 76° |
| 2026-05-04 12:54 | 45.78261 | 8.62068 | 3210 ft | 200 kts | 76° |
| 2026-05-04 12:54 | 45.78543 | 8.64017 | 3015 ft | 200 kts | 76° |
| 2026-05-04 12:54 | 45.78805 | 8.65929 | 2975 ft | 190 kts | 82° |
| 2026-05-04 12:54 | 45.78621 | 8.67723 | 2704 ft | 179 kts | 119° |
| 2026-05-04 12:55 | 45.77752 | 8.68783 | 2571 ft | 159 kts | 158° |
| 2026-05-04 12:55 | 45.76707 | 8.69276 | 2524 ft | 160 kts | 160° |
| 2026-05-04 12:55 | 45.75631 | 8.69788 | 2495 ft | 163 kts | 162° |
| 2026-05-04 12:55 | 45.74531 | 8.70166 | 2480 ft | 162 kts | 166° |
| 2026-05-04 12:56 | 45.73421 | 8.70480 | 2449 ft | 163 kts | 167° |
| 2026-05-04 12:56 | 45.72333 | 8.70816 | 2481 ft | 162 kts | 165° |
| 2026-05-04 12:56 | 45.71262 | 8.71116 | 2261 ft | 150 kts | 169° |
| 2026-05-04 12:56 | 45.70289 | 8.71330 | 2058 ft | 136 kts | 178° |
| 2026-05-04 12:57 | 45.69383 | 8.71505 | 1898 ft | 130 kts | 168° |
| 2026-05-04 12:57 | 45.68505 | 8.71812 | 1743 ft | 131 kts | 172° |
| 2026-05-04 12:57 | 45.67600 | 8.72081 | 1554 ft | 136 kts | 172° |
| 2026-05-04 12:57 | 45.66694 | 8.72334 | 1333 ft | 132 kts | 171° |
| 2026-05-04 12:58 | 45.65803 | 8.72582 | 1091 ft | 125 kts | 169° |
| 2026-05-04 12:58 | 45.64919 | 8.72835 | 960 ft | 137 kts | 173° |
| 2026-05-04 12:58 | 45.63990 | 8.73069 | 799 ft | 131 kts | 173° |
| 2026-05-04 12:58 | 45.63144 | 8.73311 | 738 ft | 112 kts | 168° |
| 2026-05-04 12:59 | 45.62520 | 8.73484 | 731 ft | 74 kts | 169° |
| 2026-05-04 12:59 | 45.62129 | 8.73593 | 722 ft | 43 kts | 169° |
| 2026-05-04 12:59 | 45.61887 | 8.73662 | 718 ft | 34 kts | 169° |
| 2026-05-04 12:59 | 45.61717 | 8.73706 | 713 ft | 8 kts | 173° |
| 2026-05-04 13:00 | 45.61655 | 8.73701 | 713 ft | 10 kts | 186° |
| 2026-05-04 13:00 | 45.61592 | 8.73660 | 697 ft | 11 kts | 241° |
| 2026-05-04 13:00 | 45.61593 | 8.73555 | 714 ft | 11 kts | 281° |
| 2026-05-04 13:00 | 45.61635 | 8.73479 | 716 ft | 11 kts | 357° |
| 2026-05-04 13:01 | 45.61663 | 8.73463 | 717 ft | 2 kts | 297° |
| 2026-05-04 13:01 | 45.61663 | 8.73439 | 716 ft | 3 kts | 262° |
| 2026-05-04 13:01 | 45.61656 | 8.73409 | 718 ft | 4 kts | 250° |
| 2026-05-04 13:01 | 45.61647 | 8.73373 | 717 ft | 4 kts | 249° |
| 2026-05-04 13:02 | 45.61631 | 8.73334 | 717 ft | 5 kts | 240° |
| 2026-05-04 13:02 | 45.61619 | 8.73284 | 717 ft | 6 kts | 247° |
| 2026-05-04 13:02 | 45.61590 | 8.73236 | 718 ft | 7 kts | 212° |
| 2026-05-04 13:02 | 45.61530 | 8.73237 | 717 ft | 11 kts | 171° |
| 2026-05-04 13:03 | 45.61448 | 8.73255 | 712 ft | 13 kts | 172° |
| 2026-05-04 13:03 | 45.61363 | 8.73261 | 712 ft | 11 kts | 199° |
| 2026-05-04 13:03 | 45.61299 | 8.73211 | 715 ft | 11 kts | 211° |
| 2026-05-04 13:03 | 45.61236 | 8.73152 | 715 ft | 11 kts | 217° |
| 2026-05-04 13:04 | 45.61175 | 8.73087 | 714 ft | 11 kts | 215° |
| 2026-05-04 13:04 | 45.61127 | 8.73000 | 712 ft | 12 kts | 253° |
| 2026-05-04 13:04 | 45.61108 | 8.72884 | 710 ft | 12 kts | 262° |
| 2026-05-04 13:04 | 45.61092 | 8.72763 | 703 ft | 13 kts | 258° |
| 2026-05-04 13:05 | 45.61079 | 8.72671 | 703 ft | 8 kts | 258° |
| 2026-05-04 13:05 | 45.61068 | 8.72594 | 713 ft | 8 kts | 258° |
| 2026-05-04 13:05 | 45.61057 | 8.72517 | 714 ft | 8 kts | 258° |
| 2026-05-04 13:05 | 45.61046 | 8.72437 | 710 ft | 9 kts | 258° |
| 2026-05-04 13:06 | 45.61035 | 8.72350 | 710 ft | 9 kts | 261° |
| 2026-05-04 13:06 | 45.61056 | 8.72276 | 715 ft | 9 kts | 340° |
| 2026-05-04 13:06 | 45.61117 | 8.72242 | 716 ft | 9 kts | 319° |
| 2026-05-04 13:06 | 45.61119 | 8.72158 | 716 ft | 10 kts | 224° |
| 2026-05-04 13:07 | 45.61056 | 8.72146 | 712 ft | 9 kts | 174° |
| 2026-05-04 13:07 | 45.60993 | 8.72160 | 712 ft | 9 kts | 166° |
| 2026-05-04 13:07 | 45.60953 | 8.72147 | 699 ft | 2 kts | 248° |
| 2026-05-04 13:07 | 45.60949 | 8.72118 | 703 ft | 4 kts | 259° |
| 2026-05-04 13:08 | 45.60944 | 8.72079 | 700 ft | 4 kts | 260° |
| 2026-05-04 13:08 | 45.60941 | 8.72049 | 702 ft | 0 kts | 259° |